Aviation Digital Data Service (ADDS)

Output produced by METARs form (0507 UTC 21 September 2017)
found at http://www.aviationweather.gov/adds/metars/
 
LCRA 210450Z 35001KT 9999 FEW012 23/19 Q1011 NOSIG
TAF LCRA 210419Z 2106/2124 30005KT 9999 FEW012 
     BECMG 2109/2112 28018G28KT 
     BECMG 2116/2119 29012KT
       
LCEN 210450Z 00000KT 8000 NSC 23/21 Q1011 NOSIG RMK RWY11 00000KT
TAF LCEN 210440Z 2106/2206 28014KT 9999 FEW025
       
LCLK 210500Z 32004KT 280V340 7000 NSC 25/23 Q1011 NOSIG
TAF LCLK 202330Z 2100/2124 30006KT 9999 FEW030 
     PROB30 2101/2104 5000 BR BKN008 
     BECMG 2108/2111 21014KT 
     BECMG 2117/2120 32009KT
       
LCPH 210500Z 03006KT 9999 FEW015 24/17 Q1011
TAF LCPH 202330Z 2100/2124 01006KT 9999 FEW020 
     PROB30 2100/2105 BKN012 
     BECMG 2107/2110 29018KT
       
LCRA 210450Z 35001KT 9999 FEW012 23/19 Q1011 NOSIG
TAF LCRA 210419Z 2106/2124 30005KT 9999 FEW012 
     BECMG 2109/2112 28018G28KT 
     BECMG 2116/2119 29012KT
       
LCLK 210500Z 32004KT 280V340 7000 NSC 25/23 Q1011 NOSIG
TAF LCLK 202330Z 2100/2124 30006KT 9999 FEW030 
     PROB30 2101/2104 5000 BR BKN008 
     BECMG 2108/2111 21014KT 
     BECMG 2117/2120 32009KT
       
LCPH 210500Z 03006KT 9999 FEW015 24/17 Q1011
TAF LCPH 202330Z 2100/2124 01006KT 9999 FEW020 
     PROB30 2100/2105 BKN012 
     BECMG 2107/2110 29018KT